createdAt,value
2022-09-07T00:01:05.655Z,15.43
2022-09-07T00:06:10.020Z,15.40
2022-09-07T00:11:13.020Z,15.45
2022-09-07T00:16:17.689Z,15.46
2022-09-07T00:21:19.232Z,15.45
2022-09-07T00:26:23.358Z,15.45
2022-09-07T00:31:25.569Z,15.41
2022-09-07T00:36:27.417Z,15.37
2022-09-07T00:41:29.206Z,15.33
2022-09-07T00:46:34.457Z,15.34
2022-09-07T00:51:43.818Z,15.32
2022-09-07T00:56:48.150Z,15.30
2022-09-07T01:01:50.158Z,15.27
2022-09-07T01:06:55.112Z,15.15
2022-09-07T01:12:00.088Z,15.12
2022-09-07T01:17:38.622Z,15.25
2022-09-07T01:23:17.309Z,15.16
2022-09-07T01:28:28.555Z,15.19
2022-09-07T01:33:42.110Z,15.09
2022-09-07T01:38:54.880Z,15.09
2022-09-07T01:44:11.914Z,15.03
2022-09-07T01:49:33.635Z,15.13
2022-09-07T01:54:41.902Z,15.05
2022-09-07T02:00:09.644Z,15.10
2022-09-07T02:05:18.484Z,15.06
2022-09-07T02:10:32.621Z,15.09
2022-09-07T02:15:37.119Z,15.10
2022-09-07T02:20:44.928Z,15.05
2022-09-07T02:25:55.929Z,15.13
2022-09-07T02:30:57.721Z,15.11
2022-09-07T02:36:01.468Z,15.12
2022-09-07T02:41:04.286Z,15.07
2022-09-07T02:46:27.176Z,15.07
2022-09-07T02:51:35.944Z,14.97
2022-09-07T02:56:54.069Z,14.95
2022-09-07T03:02:07.332Z,14.90
2022-09-07T03:07:14.233Z,14.84
2022-09-07T03:12:16.593Z,14.82
2022-09-07T03:17:18.515Z,14.77
2022-09-07T03:22:20.057Z,14.73
2022-09-07T03:27:21.696Z,14.66
2022-09-07T03:32:23.181Z,14.55
2022-09-07T03:37:25.253Z,14.48
2022-09-07T03:42:26.757Z,14.48
2022-09-07T03:47:28.397Z,14.50
2022-09-07T03:52:30.115Z,14.45
2022-09-07T03:57:31.755Z,14.49
2022-09-07T04:02:33.329Z,14.48
2022-09-07T04:07:35.070Z,14.53
2022-09-07T04:12:36.552Z,14.45
2022-09-07T04:17:38.188Z,14.44
2022-09-07T04:22:39.737Z,14.44
2022-09-07T04:27:41.238Z,14.53
2022-09-07T04:32:42.763Z,14.50
2022-09-07T04:37:44.684Z,14.50
2022-09-07T04:42:46.190Z,14.54
2022-09-07T04:47:50.749Z,14.61
2022-09-07T04:52:52.265Z,14.57
2022-09-07T04:57:56.917Z,14.56
2022-09-07T05:02:58.400Z,14.59
2022-09-07T05:07:59.904Z,14.60
2022-09-07T05:13:02.686Z,14.65
2022-09-07T05:18:04.757Z,14.79
2022-09-07T05:23:06.352Z,14.80
2022-09-07T05:28:08.184Z,14.84
2022-09-07T05:33:09.850Z,14.84
2022-09-07T05:38:11.369Z,14.86
2022-09-07T05:43:12.884Z,14.83
2022-09-07T05:48:14.451Z,14.88
2022-09-07T05:53:15.963Z,15.07
2022-09-07T05:58:18.612Z,15.07
2022-09-07T06:03:20.293Z,15.19
2022-09-07T06:08:21.942Z,15.33
2022-09-07T06:13:23.691Z,15.41
2022-09-07T06:18:29.559Z,15.57
2022-09-07T06:23:32.278Z,15.68
2022-09-07T06:28:36.723Z,15.87
2022-09-07T06:33:39.369Z,15.98
2022-09-07T06:38:42.012Z,16.12
2022-09-07T06:43:46.143Z,16.21
2022-09-07T06:48:47.683Z,16.33
2022-09-07T06:53:49.534Z,16.42
2022-09-07T06:58:55.129Z,16.50
2022-09-07T07:03:56.705Z,16.48
2022-09-07T07:08:58.266Z,16.46
2022-09-07T07:14:00.780Z,16.42
2022-09-07T07:19:02.338Z,16.41
2022-09-07T07:24:08.111Z,16.40
2022-09-07T07:29:10.148Z,16.39
2022-09-07T07:34:11.809Z,16.40
2022-09-07T07:44:34.921Z,16.37
2022-09-07T07:49:36.848Z,16.40
2022-09-07T07:54:38.570Z,16.45
2022-09-07T07:59:40.160Z,16.59
2022-09-07T08:04:41.735Z,16.71
2022-09-07T08:09:45.594Z,16.72
2022-09-07T08:14:48.178Z,16.73
2022-09-07T08:19:49.759Z,16.68
2022-09-07T08:24:51.338Z,16.73
2022-09-07T08:29:52.843Z,16.90
2022-09-07T08:34:54.260Z,16.83
2022-09-07T08:39:55.711Z,16.83
2022-09-07T08:45:06.166Z,16.82
2022-09-07T08:50:18.344Z,16.84
2022-09-07T08:55:38.948Z,16.86
2022-09-07T09:00:40.442Z,17.03
2022-09-07T09:05:57.500Z,17.12
2022-09-07T09:11:25.953Z,17.22
2022-09-07T09:16:47.831Z,17.21
2022-09-07T09:22:00.368Z,17.08
2022-09-07T09:27:01.954Z,17.04
2022-09-07T09:32:41.577Z,17.03
2022-09-07T09:37:43.967Z,17.04
2022-09-07T09:42:45.739Z,17.04
2022-09-07T09:47:50.743Z,17.02
2022-09-07T09:52:53.032Z,17.03
2022-09-07T10:09:01.824Z,17.15
2022-09-07T10:14:04.379Z,17.30
2022-09-07T10:19:06.289Z,17.54
2022-09-07T10:24:07.787Z,17.84
2022-09-07T10:29:29.648Z,17.95
2022-09-07T10:34:52.787Z,17.96
2022-09-07T10:40:20.855Z,17.85
2022-09-07T10:45:38.965Z,17.61
2022-09-07T10:51:12.515Z,17.58
2022-09-07T10:56:23.188Z,17.49
2022-09-07T11:01:36.388Z,17.45
2022-09-07T11:06:42.362Z,17.67
2022-09-07T11:12:09.792Z,18.10
2022-09-07T11:17:20.614Z,18.47
2022-09-07T11:22:35.022Z,18.69
2022-09-07T11:27:52.850Z,18.62
2022-09-07T11:33:12.710Z,18.66
2022-09-07T11:38:20.120Z,18.52
2022-09-07T11:43:27.305Z,18.55
2022-09-07T11:48:53.853Z,18.80
2022-09-07T11:54:00.469Z,19.22
2022-09-07T11:59:23.262Z,20.68
2022-09-07T12:04:56.609Z,22.75
2022-09-07T12:10:27.787Z,24.32
2022-09-07T12:15:57.057Z,25.51
2022-09-07T12:20:58.677Z,24.40
2022-09-07T12:26:34.449Z,23.85
2022-09-07T12:31:57.717Z,23.84
2022-09-07T12:37:39.358Z,24.80
2022-09-07T12:42:40.872Z,25.31
2022-09-07T12:47:42.336Z,25.00
2022-09-07T12:52:45.570Z,24.59
2022-09-07T12:58:36.709Z,24.78
2022-09-07T13:04:09.829Z,25.22
2022-09-07T13:09:32.697Z,25.72
2022-09-07T13:14:37.720Z,25.78
2022-09-07T13:19:51.334Z,26.58
2022-09-07T13:24:55.192Z,26.38
2022-09-07T13:30:29.172Z,25.84
2022-09-07T13:35:31.863Z,26.17
2022-09-07T13:40:38.291Z,26.99
2022-09-07T13:45:54.759Z,26.75
2022-09-07T13:51:04.149Z,26.84
2022-09-07T13:56:33.250Z,26.50
2022-09-07T14:01:35.183Z,26.58
2022-09-07T14:06:38.375Z,26.16
2022-09-07T14:11:47.841Z,26.15
2022-09-07T14:17:04.701Z,26.31
2022-09-07T14:22:14.509Z,25.94
2022-09-07T14:27:39.319Z,25.92
2022-09-07T14:32:41.489Z,25.80
2022-09-07T14:37:44.803Z,26.15
2022-09-07T14:42:49.884Z,25.78
2022-09-07T14:47:53.892Z,25.57
2022-09-07T14:58:23.814Z,25.15
2022-09-07T15:03:30.266Z,24.58
2022-09-07T15:08:43.229Z,24.78
2022-09-07T15:13:52.455Z,25.04
2022-09-07T15:19:03.551Z,24.94
2022-09-07T15:24:07.420Z,25.02
2022-09-07T15:29:18.196Z,25.02
2022-09-07T15:34:20.783Z,24.98
2022-09-07T15:39:25.606Z,24.86
2022-09-07T15:44:28.434Z,24.77
2022-09-07T15:49:30.120Z,24.63
2022-09-07T15:54:35.232Z,24.42
2022-09-07T15:59:38.468Z,24.26
2022-09-07T16:04:40.756Z,24.06
2022-09-07T16:09:42.376Z,23.87
2022-09-07T16:14:44.147Z,23.74
2022-09-07T16:19:45.741Z,23.53
2022-09-07T16:24:47.861Z,23.38
2022-09-07T16:29:49.288Z,23.23
2022-09-07T16:34:51.225Z,23.09
2022-09-07T16:39:53.195Z,22.98
2022-09-07T16:44:54.884Z,22.83
2022-09-07T16:49:56.868Z,22.61
2022-09-07T16:54:58.284Z,22.44
2022-09-07T16:59:59.831Z,22.28
2022-09-07T17:05:01.273Z,22.09
2022-09-07T17:10:04.030Z,21.90
2022-09-07T17:15:08.273Z,21.65
2022-09-07T17:20:10.055Z,21.48
2022-09-07T17:25:14.017Z,21.29
2022-09-07T17:30:15.695Z,21.05
2022-09-07T17:35:19.121Z,20.83
2022-09-07T17:40:20.574Z,20.57
2022-09-07T17:45:22.000Z,20.45
2022-09-07T17:50:23.496Z,20.25
2022-09-07T17:55:25.065Z,20.12
2022-09-07T18:00:26.505Z,20.00
2022-09-07T18:05:27.990Z,19.89
2022-09-07T18:11:44.920Z,19.90
2022-09-07T18:15:50.981Z,19.83
2022-09-07T18:20:52.397Z,19.62
2022-09-07T18:25:58.312Z,19.51
2022-09-07T18:31:08.846Z,19.35
2022-09-07T18:36:11.482Z,19.25
2022-09-07T18:41:14.704Z,19.07
2022-09-07T18:46:21.783Z,18.97
2022-09-07T18:51:23.432Z,18.90
2022-09-07T18:56:25.194Z,18.80
2022-09-07T19:01:27.009Z,18.75
2022-09-07T19:06:28.597Z,18.64
2022-09-07T19:11:30.562Z,18.57
2022-09-07T19:16:32.815Z,18.54
2022-09-07T19:21:37.265Z,18.52
2022-09-07T19:26:41.118Z,18.55
2022-09-07T19:32:07.452Z,18.54
2022-09-07T19:37:11.258Z,18.48
2022-09-07T19:42:13.205Z,18.49
2022-09-07T19:47:14.667Z,18.44
2022-09-07T19:52:16.518Z,18.39
2022-09-07T19:57:17.957Z,18.32
2022-09-07T20:02:19.448Z,18.32
2022-09-07T20:07:21.105Z,18.37
2022-09-07T20:12:22.506Z,18.37
2022-09-07T20:17:24.101Z,18.38
2022-09-07T20:22:25.637Z,18.32
2022-09-07T20:27:27.095Z,18.43
2022-09-07T20:32:28.522Z,18.41
2022-09-07T20:37:30.981Z,18.33
2022-09-07T20:42:32.429Z,18.28
2022-09-07T20:47:34.542Z,18.27
2022-09-07T20:52:35.968Z,18.16
2022-09-07T20:57:37.914Z,18.13
2022-09-07T21:02:39.464Z,18.04
2022-09-07T21:07:41.307Z,17.94
2022-09-07T21:12:42.780Z,17.99
2022-09-07T21:17:44.177Z,17.95
2022-09-07T21:22:45.892Z,17.94
2022-09-07T21:27:47.293Z,17.84
2022-09-07T21:32:52.233Z,17.81
2022-09-07T21:37:53.639Z,17.69
2022-09-07T21:42:55.095Z,17.60
2022-09-07T21:47:56.597Z,17.49
2022-09-07T21:52:58.092Z,17.43
2022-09-07T21:57:59.729Z,17.35
2022-09-07T22:03:01.151Z,17.33
2022-09-07T22:08:02.858Z,17.28
2022-09-07T22:13:04.311Z,17.24
2022-09-07T22:18:12.693Z,17.22
2022-09-07T22:23:14.107Z,17.16
2022-09-07T22:28:15.495Z,17.11
2022-09-07T22:33:16.961Z,17.04
2022-09-07T22:38:18.365Z,17.00
2022-09-07T22:43:19.796Z,16.97
2022-09-07T22:48:21.256Z,16.98
2022-09-07T22:53:22.864Z,16.96
2022-09-07T22:58:24.853Z,16.85
2022-09-07T23:03:28.781Z,16.78
2022-09-07T23:08:30.945Z,16.67
2022-09-07T23:13:33.505Z,16.57
2022-09-07T23:18:35.796Z,16.48
2022-09-07T23:23:38.076Z,16.38
2022-09-07T23:28:39.641Z,16.27
2022-09-07T23:33:41.081Z,16.19
2022-09-07T23:38:42.957Z,16.12
2022-09-07T23:43:45.244Z,16.05
2022-09-07T23:48:48.374Z,15.95
2022-09-07T23:53:51.029Z,15.85
2022-09-07T23:58:52.612Z,15.76
